Time;durP1;ratioP1;P1;durP2;ratioP2;P2;SDS_P1;SDS_P2;PMS_P1;PMS_P2;Temp;Humidity;BMP_temperature;BMP_pressure;BME280_temperature;BME280_humidity;BME280_pressure;Samples;Min_cycle;Max_cycle;Signal;HPM_P1;HPM_P2
2024/01/15 00:01:44;;;;;;;43.03;22.50;;;-2.60;99.90;;;-1.90;86.20;96928.72;10477891;28;20235;-66
2024/01/15 00:06:47;;;;;;;45.00;22.10;;;-2.60;99.90;;;-1.94;86.57;96920.81;10476234;28;21108;-65
2024/01/15 00:11:52;;;;;;;40.93;22.50;;;-2.60;99.90;;;-1.98;85.46;96918.78;10476294;28;20240;-63
2024/01/15 00:16:55;;;;;;;50.67;24.80;;;-2.60;99.90;;;-1.92;85.70;96904.28;10477621;28;20216;-65
2024/01/15 00:21:59;;;;;;;48.40;24.90;;;-2.60;99.90;;;-1.97;86.89;96906.41;10473447;28;20234;-64
2024/01/15 00:27:03;;;;;;;51.83;26.43;;;-2.60;99.90;;;-1.99;85.69;96902.00;10464819;28;20847;-65
2024/01/15 00:32:07;;;;;;;47.30;23.60;;;-2.60;99.90;;;-1.96;87.73;96910.66;10451561;28;20236;-65
2024/01/15 00:37:10;;;;;;;43.93;23.60;;;-2.60;99.90;;;-1.90;86.42;96903.69;10474078;28;20236;-65
2024/01/15 00:42:14;;;;;;;48.67;27.80;;;-2.60;99.90;;;-1.94;86.24;96899.16;10470340;28;20240;-65
2024/01/15 00:47:19;;;;;;;56.27;29.67;;;-2.60;99.90;;;-1.98;87.39;96889.59;10462389;28;20258;-65
2024/01/15 00:52:22;;;;;;;52.10;28.63;;;-2.60;99.90;;;-1.92;87.69;96895.16;10474214;28;21006;-66
2024/01/15 00:57:27;;;;;;;47.63;25.67;;;-2.60;99.90;;;-1.92;86.87;96890.16;10478356;28;20247;-65
2024/01/15 01:02:30;;;;;;;44.37;24.60;;;-2.60;99.90;;;-1.79;86.95;96888.75;10471446;28;20222;-65
2024/01/15 01:07:33;;;;;;;42.03;23.17;;;-2.60;99.90;;;-1.83;87.31;96890.97;10475303;28;20577;-63
2024/01/15 01:12:38;;;;;;;46.27;24.23;;;-2.50;99.90;;;-1.92;88.39;96882.63;10474569;28;20242;-63
2024/01/15 01:17:41;;;;;;;51.80;25.60;;;-2.60;99.90;;;-2.02;88.33;96880.09;10459427;28;20594;-66
2024/01/15 01:22:45;;;;;;;48.43;24.00;;;-2.60;99.90;;;-1.90;88.70;96885.28;10440588;28;20712;-66
2024/01/15 01:27:49;;;;;;;46.43;23.90;;;-2.50;99.90;;;-1.84;88.15;96879.19;10462534;28;20239;-65
2024/01/15 01:32:52;;;;;;;48.23;23.80;;;-2.50;99.90;;;-1.68;86.67;96870.53;10431048;28;21930;-66
2024/01/15 01:37:55;;;;;;;47.87;25.43;;;-2.40;99.90;;;-1.79;86.13;96873.72;10467971;28;20641;-66
2024/01/15 01:43:00;;;;;;;42.90;22.33;;;-2.50;99.90;;;-1.76;87.35;96871.47;10450805;28;20217;-65
2024/01/15 01:48:04;;;;;;;41.17;22.50;;;-2.40;99.90;;;-1.76;86.77;96868.97;10461161;28;20236;-66
2024/01/15 01:53:09;;;;;;;39.83;22.20;;;-2.40;99.90;;;-1.76;87.67;96871.47;10440401;28;20228;-65
2024/01/15 01:58:14;;;;;;;42.67;22.33;;;-2.40;99.90;;;-1.72;87.85;96871.00;10460494;28;20242;-64
2024/01/15 02:03:17;;;;;;;38.27;21.87;;;-2.30;99.90;;;-1.67;87.21;96858.13;10450075;28;20236;-64
2024/01/15 02:08:21;;;;;;;39.10;20.67;;;-2.30;99.90;;;-1.66;86.66;96864.00;10438557;28;20744;-65
2024/01/15 02:13:25;;;;;;;40.73;21.20;;;-2.30;99.90;;;-1.61;88.05;96863.66;10461489;28;20821;-66
2024/01/15 02:18:28;;;;;;;38.63;21.13;;;-2.20;99.90;;;-1.60;88.23;96857.06;10435076;28;20232;-65
2024/01/15 02:23:33;;;;;;;40.03;21.47;;;-2.20;99.90;;;-1.56;86.87;96856.56;10471483;28;20685;-65
2024/01/15 02:28:36;;;;;;;51.53;25.83;;;-2.20;99.90;;;-1.45;87.48;96848.34;10471647;28;20230;-65
2024/01/15 02:33:41;;;;;;;45.10;22.97;;;-2.10;99.90;;;-1.42;87.26;96851.09;10470401;28;20616;-65
2024/01/15 02:38:46;;;;;;;55.77;27.50;;;-2.00;99.90;;;-1.51;86.41;96847.81;10453542;28;20656;-65
2024/01/15 02:43:49;;;;;;;48.70;24.77;;;-2.00;99.90;;;-1.38;87.69;96853.13;10464170;28;20232;-65
2024/01/15 02:48:52;;;;;;;43.47;24.03;;;-2.00;99.90;;;-1.31;86.27;96843.63;10451244;28;20761;-66
2024/01/15 02:53:57;;;;;;;38.93;22.87;;;-1.90;99.90;;;-1.32;86.32;96842.72;10458569;28;20234;-66
2024/01/15 02:59:00;;;;;;;37.60;22.57;;;-1.90;99.90;;;-1.30;86.30;96850.41;10452820;28;20237;-66
2024/01/15 03:04:03;;;;;;;35.73;19.60;;;-1.90;99.90;;;-1.22;87.33;96850.31;10438556;28;20233;-66
2024/01/15 03:09:08;;;;;;;31.70;19.03;;;-1.80;99.90;;;-1.15;86.44;96845.03;10457999;28;20243;-65
2024/01/15 03:14:12;;;;;;;34.97;21.60;;;-1.80;99.90;;;-1.12;87.21;96846.94;10440159;28;20247;-66
2024/01/15 03:19:15;;;;;;;42.03;23.17;;;-1.80;99.90;;;-1.04;86.66;96840.94;10468316;28;20636;-66
2024/01/15 03:24:19;;;;;;;30.40;17.83;;;-1.80;99.90;;;-1.18;86.94;96836.41;10472604;28;20696;-66
2024/01/15 03:29:22;;;;;;;36.27;19.47;;;-1.80;99.90;;;-1.12;87.62;96841.91;10445596;28;20232;-65
2024/01/15 03:34:26;;;;;;;28.70;16.13;;;-1.80;99.90;;;-1.09;87.56;96834.66;10475881;28;20226;-64
2024/01/15 03:39:30;;;;;;;27.10;15.70;;;-1.70;99.90;;;-1.03;86.96;96821.75;10451861;28;20237;-66
2024/01/15 03:44:34;;;;;;;27.93;17.27;;;-1.70;99.90;;;-1.02;88.36;96834.44;10474216;28;20733;-65
2024/01/15 03:49:37;;;;;;;31.83;17.53;;;-1.70;99.90;;;-0.97;86.78;96820.66;10464832;28;20228;-65
2024/01/15 03:54:41;;;;;;;27.80;17.27;;;-1.60;99.90;;;-0.96;87.57;96819.03;10453139;28;20651;-66
2024/01/15 03:59:47;;;;;;;27.43;16.43;;;-1.60;99.90;;;-1.00;88.32;96815.41;10448028;28;20236;-66
2024/01/15 04:04:50;;;;;;;27.40;16.77;;;-1.60;99.90;;;-0.95;87.87;96820.78;10480384;28;20242;-65
2024/01/15 04:09:55;;;;;;;26.77;17.00;;;-1.60;99.90;;;-0.92;88.16;96805.97;10459512;28;20312;-65
2024/01/15 04:14:58;;;;;;;26.07;15.47;;;-1.60;99.90;;;-0.85;87.16;96797.38;10455202;28;20246;-65
2024/01/15 04:20:01;;;;;;;26.73;17.40;;;-1.50;99.90;;;-0.71;85.50;96792.72;10450414;28;20695;-65
2024/01/15 04:25:07;;;;;;;28.83;17.07;;;-1.50;99.90;;;-0.91;86.33;96791.09;10454353;28;20705;-64
2024/01/15 04:30:11;;;;;;;30.90;17.37;;;-1.60;99.90;;;-0.96;87.12;96788.94;10477070;28;20633;-65
2024/01/15 04:35:15;;;;;;;29.20;16.63;;;-1.60;99.90;;;-0.95;88.14;96798.22;10453026;28;20313;-66
2024/01/15 04:40:19;;;;;;;27.30;15.87;;;-1.60;99.90;;;-0.93;87.69;96785.06;10462540;28;20648;-65
2024/01/15 04:45:28;;;;;;;27.87;15.83;;;-1.60;99.90;;;-0.90;87.37;96786.94;10442788;28;20245;-65
2024/01/15 04:50:31;;;;;;;24.23;13.93;;;-1.60;99.90;;;-0.88;87.87;96794.59;10434238;28;20241;-65
2024/01/15 04:55:35;;;;;;;23.40;14.97;;;-1.50;99.90;;;-0.89;88.01;96793.69;10466422;28;20734;-65
2024/01/15 05:00:39;;;;;;;25.87;16.10;;;-1.60;99.90;;;-0.91;86.88;96793.59;10453058;28;20232;-65
2024/01/15 05:05:42;;;;;;;28.57;16.07;;;-1.60;99.90;;;-0.86;88.06;96785.56;10479055;28;20257;-65
2024/01/15 05:10:47;;;;;;;29.60;15.57;;;-1.50;99.90;;;-0.83;88.01;96790.81;10461638;28;20713;-65
2024/01/15 05:15:50;;;;;;;24.13;14.13;;;-1.50;99.90;;;-0.81;87.06;96779.28;10448747;28;20234;-65
2024/01/15 05:20:53;;;;;;;21.43;13.63;;;-1.40;99.90;;;-0.80;88.17;96793.56;10476632;28;20229;-65
2024/01/15 05:25:57;;;;;;;23.90;14.30;;;-1.40;99.90;;;-0.74;87.70;96797.50;10460302;28;20232;-65
2024/01/15 05:31:01;;;;;;;22.57;13.17;;;-1.40;99.90;;;-0.70;88.17;96783.56;10452473;28;20238;-65
2024/01/15 05:36:06;;;;;;;23.10;14.83;;;-1.30;99.90;;;-0.58;87.08;96788.72;10446827;28;20300;-64
2024/01/15 05:41:10;;;;;;;23.10;14.93;;;-1.30;99.90;;;-0.69;88.54;96780.28;10456084;28;20229;-65
2024/01/15 05:46:15;;;;;;;24.87;17.43;;;-1.40;99.90;;;-0.77;88.85;96776.31;10435721;28;20225;-64
2024/01/15 05:51:18;;;;;;;23.83;15.50;;;-1.40;99.90;;;-0.82;88.66;96763.38;10437345;28;20238;-63
2024/01/15 05:56:24;;;;;;;26.37;15.70;;;-1.50;99.90;;;-0.79;88.38;96758.59;10457339;28;20230;-63
2024/01/15 06:01:27;;;;;;;20.93;14.30;;;-1.40;99.90;;;-0.66;88.45;96760.47;10447684;28;20233;-63
2024/01/15 06:06:30;;;;;;;23.33;14.77;;;-1.30;99.90;;;-0.71;88.70;96751.72;10439281;28;20328;-65
2024/01/15 06:11:35;;;;;;;22.80;15.93;;;-1.30;99.90;;;-0.66;88.66;96752.94;10433891;28;20264;-64
2024/01/15 06:16:38;;;;;;;20.77;13.00;;;-1.30;99.90;;;-0.67;88.43;96753.72;10450563;28;20237;-64
2024/01/15 06:21:41;;;;;;;18.87;12.00;;;-1.30;99.90;;;-0.66;87.84;96754.59;10441812;28;20231;-64
2024/01/15 06:26:47;;;;;;;24.13;14.70;;;-1.30;99.90;;;-0.62;88.79;96767.50;10448557;28;20239;-64
2024/01/15 06:31:50;;;;;;;25.03;15.63;;;-1.30;99.90;;;-0.65;88.56;96774.78;10440693;28;20243;-64
2024/01/15 06:36:54;;;;;;;24.23;14.93;;;-1.30;99.90;;;-0.70;88.46;96766.00;10462384;28;20839;-64
2024/01/15 06:41:58;;;;;;;25.70;15.13;;;-1.40;99.90;;;-0.72;89.51;96759.97;10449087;28;20257;-65
2024/01/15 06:47:02;;;;;;;24.33;15.03;;;-1.40;99.90;;;-0.74;88.78;96746.44;10450212;28;20226;-64
2024/01/15 06:52:07;;;;;;;23.83;14.20;;;-1.50;99.90;;;-0.84;89.91;96744.81;10441448;28;20230;-65
2024/01/15 06:57:11;;;;;;;22.27;14.03;;;-1.50;99.90;;;-0.78;89.51;96750.31;10422884;28;20278;-65
2024/01/15 07:02:14;;;;;;;23.03;14.60;;;-1.50;99.90;;;-0.74;90.42;96742.31;10434637;28;20243;-64
2024/01/15 07:07:18;;;;;;;22.87;14.20;;;-1.40;99.90;;;-0.59;89.25;96735.13;10430034;28;20228;-64
2024/01/15 07:12:22;;;;;;;22.33;13.30;;;-1.40;99.90;;;-0.65;89.18;96741.31;10429268;28;20255;-65
2024/01/15 07:17:25;;;;;;;21.73;13.47;;;-1.30;99.90;;;-0.70;88.78;96754.34;10426249;28;20579;-65
2024/01/15 07:22:29;;;;;;;17.17;12.23;;;-1.30;99.90;;;-0.56;89.48;96757.09;10430472;28;20238;-64
2024/01/15 07:27:34;;;;;;;22.20;12.37;;;-1.20;99.90;;;-0.44;88.35;96754.69;10425948;28;20591;-64
2024/01/15 07:32:37;;;;;;;23.13;13.77;;;-1.10;99.90;;;-0.39;87.88;96760.97;10428881;28;20232;-64
2024/01/15 07:37:40;;;;;;;31.27;18.50;;;-1.10;99.90;;;-0.36;88.36;96773.78;10428214;28;20224;-65
2024/01/15 07:42:45;;;;;;;36.77;20.50;;;-1.00;99.90;;;-0.36;88.21;96762.09;10433817;28;20227;-66
2024/01/15 07:47:49;;;;;;;34.33;20.00;;;-1.00;99.90;;;-0.32;88.61;96763.22;10449746;28;20239;-65
2024/01/15 07:52:53;;;;;;;29.77;18.07;;;-0.90;99.90;;;-0.32;87.69;96758.19;10448076;28;20739;-66
2024/01/15 07:57:58;;;;;;;31.77;17.23;;;-0.90;99.90;;;-0.32;88.26;96753.16;10484089;28;20227;-65
2024/01/15 08:03:17;;;;;;;29.43;16.20;;;-0.90;99.90;;;-0.21;87.84;96752.41;10452236;28;20223;-64
2024/01/15 08:08:22;;;;;;;31.03;18.47;;;-0.80;99.90;;;-0.12;87.71;96757.25;10456238;28;20717;-66
2024/01/15 08:13:28;;;;;;;26.50;17.20;;;-0.70;99.90;;;-0.05;87.80;96745.31;10443143;28;20232;-65
2024/01/15 08:18:31;;;;;;;22.13;14.97;;;-0.70;99.90;;;0.02;87.74;96740.78;10453337;28;20229;-65
2024/01/15 08:23:36;;;;;;;20.60;14.03;;;-0.60;99.90;;;0.07;88.35;96747.06;10445394;28;20247;-65
2024/01/15 08:28:40;;;;;;;21.70;14.70;;;-0.60;99.90;;;0.13;87.78;96745.03;10432094;28;20282;-65
2024/01/15 08:33:43;;;;;;;18.77;13.30;;;-0.50;99.90;;;0.15;88.16;96735.97;10462224;28;20774;-64
2024/01/15 08:38:47;;;;;;;20.47;12.90;;;-0.50;99.90;;;0.23;88.23;96747.50;10449129;28;20334;-65
2024/01/15 08:43:52;;;;;;;21.83;13.63;;;-0.40;99.90;;;0.30;89.01;96733.78;10449457;28;20227;-65
2024/01/15 08:48:56;;;;;;;24.67;15.30;;;-0.30;99.90;;;0.33;87.97;96727.34;10426709;28;20229;-65
2024/01/15 08:53:59;;;;;;;21.63;15.37;;;-0.30;99.90;;;0.45;87.59;96728.28;10451265;28;20262;-69
2024/01/15 08:59:04;;;;;;;25.33;16.07;;;-0.20;99.90;;;0.45;87.67;96734.94;10440424;28;20216;-66
2024/01/15 09:04:07;;;;;;;18.57;12.63;;;-0.20;99.90;;;0.63;86.46;96735.47;10459641;28;20229;-66
2024/01/15 09:09:10;;;;;;;17.57;11.80;;;-0.10;99.90;;;0.71;85.59;96748.63;10454993;28;21644;-65
2024/01/15 09:14:15;;;;;;;20.43;12.93;;;0.00;99.90;;;0.72;84.88;96733.69;10469321;28;20838;-66
2024/01/15 09:19:21;;;;;;;17.00;11.23;;;0.00;99.90;;;0.71;84.33;96731.03;10469180;28;20220;-66
2024/01/15 09:24:24;;;;;;;14.43;10.97;;;0.00;99.90;;;0.86;82.91;96730.56;10459100;28;20745;-66
2024/01/15 09:29:32;;;;;;;12.17;9.57;;;0.10;99.90;;;0.98;81.02;96720.56;10434680;28;20229;-66
2024/01/15 09:34:35;;;;;;;13.73;9.80;;;0.30;99.90;;;1.08;79.91;96717.06;10441790;28;20216;-66
2024/01/15 09:39:38;;;;;;;15.37;10.20;;;0.40;99.90;;;1.27;78.05;96710.13;10461737;28;20231;-67
2024/01/15 09:44:43;;;;;;;10.77;9.37;;;0.50;99.90;;;1.25;77.47;96713.28;10437344;28;20310;-66
2024/01/15 09:49:46;;;;;;;13.00;9.27;;;0.60;99.90;;;1.44;75.92;96702.94;10478263;28;20237;-65
2024/01/15 09:54:50;;;;;;;12.67;8.50;;;0.60;99.90;;;1.46;75.88;96696.34;10468481;28;20228;-65
2024/01/15 09:59:58;;;;;;;10.97;8.53;;;0.80;99.90;;;1.69;74.57;96698.91;10460381;28;20235;-66
2024/01/15 10:05:02;;;;;;;11.00;8.73;;;0.90;99.90;;;1.72;72.88;96689.06;10451111;28;20229;-65
2024/01/15 10:10:07;;;;;;;14.33;9.97;;;1.00;99.90;;;1.70;72.70;96680.50;10467977;28;20226;-65
2024/01/15 10:15:13;;;;;;;10.50;8.33;;;1.00;99.90;;;1.93;71.75;96676.22;10454117;28;20284;-66
2024/01/15 10:20:16;;;;;;;10.40;7.63;;;1.20;99.90;;;1.97;71.15;96671.50;10443637;28;20285;-65
2024/01/15 10:25:24;;;;;;;11.03;8.67;;;1.20;99.90;;;1.99;70.33;96669.09;10425358;28;20236;-66
2024/01/15 10:30:29;;;;;;;11.20;9.27;;;1.30;99.90;;;1.95;71.06;96665.50;10432993;28;20719;-66
2024/01/15 10:35:34;;;;;;;9.30;6.37;;;1.30;99.90;;;2.03;69.83;96661.88;10450245;28;20234;-66
2024/01/15 10:40:38;;;;;;;12.67;8.57;;;1.30;99.90;;;1.99;70.00;96656.50;10435497;28;20232;-66
2024/01/15 10:45:44;;;;;;;9.40;6.63;;;1.30;99.90;;;2.16;69.41;96640.91;10440588;28;20234;-65
2024/01/15 10:50:48;;;;;;;10.13;5.93;;;1.30;99.90;;;2.36;68.45;96631.31;10455036;28;20257;-65
2024/01/15 10:55:52;;;;;;;10.20;6.77;;;1.50;99.90;;;2.61;66.33;96627.16;10423610;28;20617;-65
2024/01/15 11:00:57;;;;;;;9.70;6.70;;;1.80;99.90;;;2.47;66.91;96627.88;10464410;28;20220;-66
2024/01/15 11:06:01;;;;;;;7.70;6.33;;;1.70;99.90;;;2.40;67.33;96623.19;10450841;28;20245;-66
2024/01/15 11:11:05;;;;;;;7.07;6.27;;;1.60;99.90;;;2.46;67.10;96618.53;10461136;28;20232;-66
2024/01/15 11:16:11;;;;;;;7.63;6.50;;;1.70;99.90;;;2.42;68.28;96616.59;10446616;28;20298;-66
2024/01/15 11:21:26;;;;;;;10.93;7.33;;;1.60;99.90;;;2.25;69.25;96626.41;10437878;28;20239;-66
2024/01/15 11:26:35;;;;;;;9.67;5.87;;;1.50;99.90;;;2.59;67.65;96626.19;10441320;28;20230;-66
2024/01/15 11:32:01;;;;;;;6.90;5.73;;;1.60;99.90;;;2.46;68.66;96606.84;10433796;28;20351;-66
2024/01/15 11:37:04;;;;;;;8.50;6.33;;;1.70;99.90;;;2.25;70.48;96610.41;10466403;28;20224;-65
2024/01/15 11:42:08;;;;;;;7.70;6.60;;;1.50;99.90;;;2.22;72.71;96606.03;10468569;28;20229;-67
2024/01/15 11:47:13;;;;;;;15.77;11.73;;;1.50;99.90;;;2.37;72.57;96595.25;10478998;28;20739;-66
2024/01/15 11:52:21;;;;;;;14.80;11.07;;;1.50;99.90;;;2.36;73.14;96593.50;10472596;28;20228;-66
2024/01/15 11:57:44;;;;;;;11.37;10.17;;;1.70;99.90;;;2.21;77.81;96583.25;10440708;28;20816;-66
2024/01/15 12:02:50;;;;;;;9.70;8.10;;;1.40;99.90;;;1.97;81.24;96587.47;10463407;28;20227;-66
2024/01/15 12:07:54;;;;;;;9.73;8.33;;;1.20;99.90;;;1.91;81.51;96584.53;10460148;28;20317;-66
2024/01/15 12:13:01;;;;;;;9.53;7.07;;;1.20;99.90;;;1.79;82.06;96572.84;10431977;28;20641;-66
2024/01/15 12:18:07;;;;;;;8.57;7.67;;;1.10;99.90;;;1.94;82.35;96580.56;10474344;28;20305;-66
2024/01/15 12:23:11;;;;;;;12.00;9.37;;;1.10;99.90;;;1.98;81.70;96569.97;10467465;28;20822;-67
2024/01/15 12:28:14;;;;;;;8.50;6.90;;;1.10;99.90;;;1.97;81.47;96560.63;10451265;28;20234;-66
2024/01/15 12:33:19;;;;;;;8.80;6.90;;;1.10;99.90;;;2.01;81.05;96564.25;10474825;28;20223;-66
2024/01/15 12:38:23;;;;;;;10.37;7.60;;;1.30;99.90;;;2.01;81.22;96570.16;10473649;28;20244;-66
2024/01/15 12:43:26;;;;;;;7.57;6.73;;;1.20;99.90;;;1.74;84.36;96574.16;10448736;28;20607;-66
2024/01/15 12:48:31;;;;;;;12.27;8.63;;;1.10;99.90;;;1.77;84.36;96561.81;10465541;28;20236;-65
2024/01/15 12:53:34;;;;;;;7.67;6.77;;;1.10;99.90;;;1.95;82.92;96561.31;10439450;28;20542;-66
2024/01/15 12:58:37;;;;;;;7.80;6.10;;;1.20;99.90;;;1.94;84.14;96570.50;10461946;28;20314;-66
2024/01/15 13:03:42;;;;;;;8.00;5.57;;;1.20;99.90;;;1.67;90.75;96577.03;10437021;28;20234;-65
2024/01/15 13:08:46;;;;;;;8.37;6.73;;;1.00;99.90;;;1.38;92.75;96581.69;10462460;28;20226;-65
2024/01/15 13:13:49;;;;;;;8.20;6.40;;;0.80;99.90;;;1.34;94.17;96575.53;10444970;28;20262;-66
2024/01/15 13:18:54;;;;;;;133.93;59.93;;;0.80;99.90;;;1.22;95.00;96578.03;10432475;28;20221;-65
2024/01/15 13:23:57;;;;;;;18.33;12.03;;;0.60;99.90;;;1.28;94.84;96578.47;10464998;28;20236;-65
2024/01/15 13:29:01;;;;;;;14.07;10.30;;;0.60;99.90;;;1.39;94.74;96579.25;10459051;28;22783;-66
2024/01/15 13:34:07;;;;;;;9.13;7.13;;;0.70;99.90;;;1.50;95.05;96587.56;10457150;28;20606;-65
2024/01/15 13:39:10;;;;;;;8.33;7.53;;;0.80;99.90;;;1.46;94.95;96595.66;10446764;28;20296;-65
2024/01/15 13:44:13;;;;;;;8.93;7.07;;;0.80;99.90;;;1.50;94.91;96597.63;10463854;28;20587;-66
2024/01/15 13:49:17;;;;;;;10.40;7.70;;;0.80;99.90;;;1.48;94.36;96617.66;10451090;28;20232;-65
2024/01/15 13:54:21;;;;;;;7.70;6.90;;;0.90;99.90;;;1.24;96.00;96620.94;10471722;28;20226;-64
2024/01/15 13:59:32;;;;;;;10.53;8.93;;;0.80;99.90;;;1.22;96.51;96630.91;10447467;28;20236;-65
2024/01/15 14:04:36;;;;;;;13.20;9.40;;;0.70;99.90;;;1.20;97.54;96641.59;10464408;28;20314;-65
2024/01/15 14:09:40;;;;;;;8.87;7.60;;;0.60;99.90;;;1.29;97.82;96652.38;10440086;28;20233;-64
2024/01/15 14:14:43;;;;;;;9.33;8.43;;;0.70;99.90;;;1.22;98.58;96666.13;10466266;28;20247;-64
2024/01/15 14:19:47;;;;;;;9.47;8.13;;;0.70;99.90;;;1.20;99.19;96681.88;10444211;28;20795;-64
2024/01/15 14:24:51;;;;;;;10.27;8.50;;;0.70;99.90;;;1.27;99.27;96679.91;10458416;28;20226;-65
2024/01/15 14:29:54;;;;;;;9.20;7.50;;;0.60;99.90;;;1.25;100.00;96681.44;10420633;28;20637;-65
2024/01/15 14:34:59;;;;;;;8.37;6.90;;;0.60;99.90;;;1.37;99.97;96680.59;10463366;28;20319;-65
2024/01/15 14:40:02;;;;;;;10.73;9.03;;;0.60;99.90;;;1.17;100.00;96691.72;10459936;28;20237;-64
2024/01/15 14:45:11;;;;;;;10.13;8.13;;;0.60;99.90;;;1.10;100.00;96700.47;10448817;28;20247;-65
2024/01/15 14:50:17;;;;;;;10.03;9.03;;;0.50;99.90;;;1.07;100.00;96700.22;10451086;28;20234;-64
2024/01/15 14:55:23;;;;;;;11.87;9.60;;;0.50;99.90;;;1.07;100.00;96716.19;10456499;28;20240;-65
2024/01/15 15:00:26;;;;;;;14.63;11.27;;;0.50;99.90;;;1.09;100.00;96724.75;10424650;28;20235;-63
2024/01/15 15:05:31;;;;;;;10.17;9.00;;;0.50;99.90;;;1.08;100.00;96747.25;10449808;28;20762;-66
2024/01/15 15:10:35;;;;;;;9.30;8.40;;;0.40;99.90;;;1.12;100.00;96759.31;10433950;28;20598;-64
2024/01/15 15:15:38;;;;;;;12.13;10.20;;;0.50;99.90;;;1.08;100.00;96759.84;10433100;28;20224;-65
2024/01/15 15:20:42;;;;;;;11.50;8.70;;;0.50;99.90;;;0.87;100.00;96772.56;10428579;28;20704;-65
2024/01/15 15:25:46;;;;;;;18.90;15.63;;;0.40;99.90;;;0.93;100.00;96778.81;10429435;28;20229;-65
2024/01/15 15:30:49;;;;;;;11.87;10.07;;;0.30;99.90;;;0.77;100.00;96785.19;10451690;28;20229;-64
2024/01/15 15:35:53;;;;;;;11.40;9.77;;;0.20;99.90;;;0.73;100.00;96790.75;10443240;28;20906;-64
2024/01/15 15:40:56;;;;;;;14.27;11.17;;;0.20;99.90;;;0.76;100.00;96793.50;10436078;28;20311;-67
2024/01/15 15:46:00;;;;;;;14.37;12.23;;;0.20;99.90;;;0.94;100.00;96814.13;10462100;28;20227;-67
2024/01/15 15:51:05;;;;;;;14.10;12.67;;;0.30;99.90;;;0.89;100.00;96817.97;10430875;28;20748;-66
2024/01/15 15:56:10;;;;;;;15.23;13.63;;;0.30;99.90;;;0.67;100.00;96833.88;10457625;28;20236;-66
2024/01/15 16:01:13;;;;;;;16.33;14.57;;;0.20;99.90;;;0.71;100.00;96829.97;10450471;28;20564;-66
2024/01/15 16:06:17;;;;;;;16.17;13.80;;;0.10;99.90;;;0.70;100.00;96833.25;10474058;28;20263;-66
2024/01/15 16:11:21;;;;;;;16.27;14.33;;;0.10;99.90;;;0.67;100.00;96838.03;10461260;28;20235;-66
2024/01/15 16:16:24;;;;;;;15.93;14.33;;;0.00;99.90;;;0.59;100.00;96844.09;10481130;28;20224;-65
2024/01/15 16:21:48;;;;;;;14.23;12.53;;;-0.10;99.90;;;0.55;100.00;96853.06;10452790;28;20229;-65
2024/01/15 16:27:12;;;;;;;14.03;12.57;;;-0.10;99.90;;;0.47;100.00;96865.78;10445828;28;20228;-66
2024/01/15 16:32:15;;;;;;;16.37;13.13;;;-0.10;99.90;;;0.54;100.00;96862.97;10459430;28;20229;-65
2024/01/15 16:37:20;;;;;;;22.00;17.07;;;-0.20;99.90;;;0.48;100.00;96862.50;10479167;28;20247;-66
2024/01/15 16:42:23;;;;;;;17.77;14.10;;;-0.20;99.90;;;0.38;100.00;96876.84;10476552;28;20339;-64
2024/01/15 16:47:27;;;;;;;17.17;14.60;;;-0.20;99.90;;;0.40;100.00;96892.94;10465599;28;20228;-66
2024/01/15 16:52:32;;;;;;;18.90;16.27;;;-0.20;99.90;;;0.52;99.91;96892.16;10463001;28;20357;-64
2024/01/15 16:57:35;;;;;;;17.53;15.67;;;-0.20;99.90;;;0.23;99.96;96903.28;10487219;28;20225;-65
2024/01/15 17:02:39;;;;;;;13.43;12.13;;;-0.40;99.90;;;0.20;98.45;96892.94;10470968;28;20233;-64
2024/01/15 17:07:43;;;;;;;15.83;12.20;;;-0.50;99.90;;;0.07;98.01;96900.28;10503317;28;20227;-65
2024/01/15 17:12:47;;;;;;;14.33;11.83;;;-0.70;99.90;;;0.10;97.10;96905.53;10470059;28;20253;-65
2024/01/15 17:17:50;;;;;;;13.43;11.03;;;-0.70;99.90;;;0.05;95.48;96912.69;10459155;28;20261;-65
2024/01/15 17:22:55;;;;;;;13.57;11.63;;;-0.70;99.90;;;-0.04;95.59;96922.88;10445341;28;20585;-65
2024/01/15 17:28:01;;;;;;;15.60;12.57;;;-0.80;99.90;;;-0.14;95.55;96937.03;10444469;28;20240;-65
2024/01/15 17:33:05;;;;;;;12.30;10.80;;;-0.90;99.90;;;-0.13;95.44;96941.34;10454612;28;20295;-65
2024/01/15 17:38:09;;;;;;;13.53;12.10;;;-0.90;99.90;;;-0.26;95.62;96944.44;10447840;28;20767;-65
2024/01/15 17:43:13;;;;;;;16.40;13.40;;;-1.00;99.90;;;-0.20;96.22;96954.13;10458922;28;20238;-65
2024/01/15 17:48:16;;;;;;;15.53;13.07;;;-1.00;99.90;;;-0.18;95.88;96963.53;10451313;28;20678;-64
2024/01/15 17:53:20;;;;;;;13.40;11.50;;;-0.90;99.90;;;-0.14;96.84;96984.75;10440332;28;20260;-65
2024/01/15 17:58:24;;;;;;;18.33;14.30;;;-0.80;99.90;;;-0.05;95.69;96991.44;10442226;28;20218;-65
2024/01/15 18:03:27;;;;;;;15.13;12.87;;;-0.70;99.90;;;-0.08;95.63;96996.22;10449241;28;20242;-65
2024/01/15 18:08:31;;;;;;;14.47;12.40;;;-0.60;99.90;;;0.08;94.98;97003.38;10458377;28;20302;-65
2024/01/15 18:13:34;;;;;;;16.43;13.00;;;-0.60;99.90;;;0.09;94.98;97001.75;10445680;28;20229;-65
2024/01/15 18:18:38;;;;;;;14.23;11.17;;;-0.50;99.90;;;0.25;94.15;97007.28;10463453;28;20228;-65
2024/01/15 18:23:42;;;;;;;17.53;13.73;;;-0.40;99.90;;;0.10;93.78;97018.59;10454510;28;20235;-65
2024/01/15 18:28:46;;;;;;;31.03;20.97;;;-0.50;99.90;;;0.11;94.73;97023.72;10444978;28;20608;-64
2024/01/15 18:33:49;;;;;;;18.93;16.40;;;-0.40;99.90;;;0.21;93.92;97025.38;10465402;28;20606;-64
2024/01/15 18:38:54;;;;;;;16.60;14.87;;;-0.40;99.90;;;0.16;94.26;97032.53;10449814;28;20227;-65
2024/01/15 18:43:57;;;;;;;14.03;12.67;;;-0.40;99.90;;;0.24;93.28;97043.22;10438601;28;20613;-64
2024/01/15 18:49:00;;;;;;;16.30;14.20;;;-0.30;99.90;;;0.26;93.06;97043.31;10467626;28;20369;-64
2024/01/15 18:54:05;;;;;;;14.87;12.23;;;-0.30;99.90;;;0.22;93.63;97047.22;10447992;28;20230;-66
2024/01/15 18:59:08;;;;;;;11.63;10.00;;;-0.40;99.90;;;0.20;92.97;97048.72;10469302;28;20624;-64
2024/01/15 19:04:12;;;;;;;12.20;10.60;;;-0.40;99.90;;;0.27;92.83;97058.53;10457694;28;20232;-65
2024/01/15 19:09:16;;;;;;;11.37;10.13;;;-0.40;99.90;;;0.17;93.20;97068.56;10448236;28;20665;-64
2024/01/15 19:14:20;;;;;;;12.37;11.17;;;-0.50;99.90;;;0.04;93.50;97078.38;10469555;28;20231;-64
2024/01/15 19:19:23;;;;;;;11.93;9.47;;;-0.60;99.90;;;0.18;92.66;97075.38;10476062;28;20235;-64
2024/01/15 19:24:27;;;;;;;11.57;9.53;;;-0.50;99.90;;;0.22;92.17;97082.41;10456866;28;20334;-64
2024/01/15 19:29:30;;;;;;;13.20;10.10;;;-0.50;99.90;;;0.08;93.47;97082.88;10473191;28;20234;-64
2024/01/15 19:34:37;;;;;;;10.27;9.13;;;-0.50;99.90;;;0.11;93.14;97076.47;10444317;28;20318;-64
2024/01/15 19:39:42;;;;;;;9.30;8.30;;;-0.50;99.90;;;0.11;93.04;97088.16;10455738;28;20226;-64
2024/01/15 19:44:45;;;;;;;23.83;15.67;;;-0.50;99.90;;;0.11;92.92;97084.00;10464473;28;20232;-64
2024/01/15 19:49:48;;;;;;;31.10;19.13;;;-0.50;99.90;;;0.11;92.50;97098.22;10446673;28;20600;-64
2024/01/15 19:54:52;;;;;;;13.27;9.43;;;-0.50;99.90;;;0.19;92.42;97113.16;10465179;28;20373;-64
2024/01/15 19:59:56;;;;;;;11.83;10.30;;;-0.50;99.90;;;0.22;91.81;97110.03;10457124;28;20229;-64
2024/01/15 20:04:59;;;;;;;10.80;9.70;;;-0.50;99.90;;;0.12;91.86;97125.97;10447065;28;20718;-64
2024/01/15 20:10:04;;;;;;;8.47;7.57;;;-0.50;99.90;;;0.04;91.78;97123.56;10454268;28;20288;-64
2024/01/15 20:15:08;;;;;;;9.00;8.07;;;-0.60;99.90;;;0.10;90.39;97135.00;10473218;28;20218;-64
2024/01/15 20:20:12;;;;;;;8.30;7.50;;;-0.50;99.90;;;0.11;90.21;97143.41;10462752;28;20790;-63
2024/01/15 20:25:16;;;;;;;36.13;21.13;;;-0.50;99.90;;;0.02;91.18;97143.53;10453466;28;20651;-63
2024/01/15 20:30:21;;;;;;;8.63;7.50;;;-0.50;99.90;;;0.19;88.35;97142.44;10457402;28;20266;-64
2024/01/15 20:35:24;;;;;;;11.93;9.77;;;-0.50;99.90;;;0.10;89.01;97156.75;10454360;28;20226;-63
2024/01/15 20:40:29;;;;;;;13.23;10.07;;;-0.50;99.90;;;0.05;89.35;97163.00;10444340;28;20305;-63
2024/01/15 20:45:35;;;;;;;9.47;8.30;;;-0.50;99.90;;;0.01;89.34;97155.97;10448283;28;20227;-63
2024/01/15 20:50:39;;;;;;;10.10;9.00;;;-0.60;99.90;;;-0.01;89.70;97159.22;10452314;28;20228;-64
2024/01/15 20:55:43;;;;;;;13.33;10.70;;;-0.60;99.90;;;0.17;88.53;97164.94;10445499;28;20226;-63